createdAt,value
2023-04-29T00:00:03.847Z,10.80
2023-04-29T00:01:03.627Z,11.60
2023-04-29T00:02:03.716Z,11.20
2023-04-29T00:03:03.757Z,11.70
2023-04-29T00:04:03.805Z,12.40
2023-04-29T00:05:03.707Z,11.60
2023-04-29T00:06:03.827Z,11.50
2023-04-29T00:07:03.624Z,12.10
2023-04-29T00:08:03.715Z,11.90
2023-04-29T00:09:03.463Z,11.60
2023-04-29T00:10:03.668Z,11.60
2023-04-29T00:11:03.557Z,11.80
2023-04-29T00:12:03.572Z,12.00
2023-04-29T00:13:03.660Z,12.20
2023-04-29T00:14:03.671Z,12.50
2023-04-29T00:15:03.658Z,12.90
2023-04-29T00:16:03.678Z,12.20
2023-04-29T00:17:03.486Z,12.70
2023-04-29T00:18:03.655Z,12.90
2023-04-29T00:19:03.490Z,12.80
2023-04-29T00:20:03.466Z,13.20
2023-04-29T00:21:03.463Z,13.70
2023-04-29T00:22:03.364Z,13.00
2023-04-29T00:23:03.305Z,13.70
2023-04-29T00:24:03.288Z,14.10
2023-04-29T00:25:03.432Z,14.20
2023-04-29T00:26:03.200Z,15.60
2023-04-29T00:27:03.548Z,15.20
2023-04-29T00:28:03.416Z,15.80
2023-04-29T00:29:03.406Z,16.00
2023-04-29T00:30:03.447Z,15.40
2023-04-29T00:31:03.379Z,16.10
2023-04-29T00:32:03.562Z,16.30
2023-04-29T00:33:03.678Z,15.90
2023-04-29T00:34:03.389Z,16.50
2023-04-29T00:35:03.138Z,16.90
2023-04-29T00:36:03.390Z,16.60
2023-04-29T00:37:03.412Z,17.40
2023-04-29T00:38:03.198Z,16.10
2023-04-29T00:39:03.215Z,16.60
2023-04-29T00:40:03.130Z,16.70
2023-04-29T00:41:03.189Z,17.50
2023-04-29T00:42:03.210Z,16.20
2023-04-29T00:43:03.299Z,17.10
2023-04-29T00:44:03.256Z,16.40
2023-04-29T00:45:03.143Z,17.10
2023-04-29T00:46:03.184Z,16.50
2023-04-29T00:47:03.144Z,17.30
2023-04-29T00:48:03.191Z,17.90
2023-04-29T00:49:03.237Z,17.00
2023-04-29T00:50:02.989Z,17.20
2023-04-29T00:51:03.008Z,17.50
2023-04-29T00:52:03.197Z,17.70
2023-04-29T00:53:03.041Z,17.90
2023-04-29T00:54:03.161Z,17.30
2023-04-29T00:55:03.040Z,18.30
2023-04-29T00:56:03.050Z,17.20
2023-04-29T00:57:03.066Z,17.70
2023-04-29T00:58:03.058Z,18.10
2023-04-29T00:59:03.025Z,17.50
2023-04-29T01:00:03.045Z,17.70
2023-04-29T01:01:03.131Z,18.00
2023-04-29T01:02:02.904Z,18.10
2023-04-29T01:03:03.079Z,17.90
2023-04-29T01:04:03.201Z,18.20
2023-04-29T01:05:02.910Z,18.40
2023-04-29T01:06:03.088Z,18.10
2023-04-29T01:07:03.088Z,18.10
2023-04-29T01:08:03.072Z,18.40
2023-04-29T01:09:03.067Z,19.20
2023-04-29T01:10:03.067Z,18.50
2023-04-29T01:11:03.075Z,17.80
2023-04-29T01:12:02.749Z,18.20
2023-04-29T01:13:03.057Z,19.50
2023-04-29T01:14:03.048Z,19.00
2023-04-29T01:15:02.790Z,18.80
2023-04-29T01:16:03.084Z,18.90
2023-04-29T01:17:03.048Z,17.70
2023-04-29T01:18:02.882Z,18.80
2023-04-29T01:19:02.825Z,18.40
2023-04-29T01:20:02.645Z,19.00
2023-04-29T01:21:03.089Z,19.10
2023-04-29T01:22:03.117Z,18.40
2023-04-29T01:23:02.903Z,19.40
2023-04-29T01:24:02.688Z,19.10
2023-04-29T01:25:02.578Z,19.30
2023-04-29T01:26:02.673Z,18.90
2023-04-29T01:27:02.660Z,19.20
2023-04-29T01:28:02.719Z,18.90
2023-04-29T01:29:02.624Z,19.00
2023-04-29T01:30:02.640Z,19.50
2023-04-29T01:31:02.622Z,18.50
2023-04-29T01:32:02.669Z,19.10
2023-04-29T01:33:02.510Z,20.00
2023-04-29T01:34:02.598Z,18.60
2023-04-29T01:35:02.480Z,19.80
2023-04-29T01:36:02.520Z,18.70
2023-04-29T01:37:02.563Z,19.40
2023-04-29T01:38:02.639Z,19.40
2023-04-29T01:39:02.640Z,19.00
2023-04-29T01:40:02.675Z,19.60
2023-04-29T01:41:02.581Z,19.80
2023-04-29T01:42:02.743Z,18.40
2023-04-29T01:43:02.652Z,20.20
2023-04-29T01:44:02.522Z,18.60
2023-04-29T01:45:02.532Z,19.10
2023-04-29T01:46:02.508Z,19.20
2023-04-29T01:47:02.569Z,20.50
2023-04-29T01:48:02.660Z,18.60
2023-04-29T01:49:02.526Z,19.50
2023-04-29T01:50:02.365Z,18.80
2023-04-29T01:51:02.534Z,19.50
2023-04-29T01:52:02.651Z,19.80
2023-04-29T01:53:02.463Z,19.80
2023-04-29T01:54:02.287Z,19.30
2023-04-29T01:55:02.267Z,20.50
2023-04-29T01:56:02.314Z,19.70
2023-04-29T01:57:02.355Z,20.40
2023-04-29T01:58:02.495Z,19.70
2023-04-29T01:59:02.408Z,20.10
2023-04-29T02:00:02.387Z,19.80
2023-04-29T02:01:02.345Z,19.70
2023-04-29T02:02:02.326Z,20.10
2023-04-29T02:03:02.458Z,20.70
2023-04-29T02:04:02.271Z,19.80
2023-04-29T02:05:02.194Z,20.90
2023-04-29T02:06:02.380Z,20.70
2023-04-29T02:07:02.350Z,20.20
2023-04-29T02:08:02.433Z,21.10
2023-04-29T02:09:02.368Z,20.70
2023-04-29T02:10:02.219Z,20.70
2023-04-29T02:11:02.294Z,21.70
2023-04-29T02:12:02.308Z,21.10
2023-04-29T02:13:02.291Z,21.00
2023-04-29T02:14:02.340Z,21.40
2023-04-29T02:15:02.259Z,21.50
2023-04-29T02:16:02.305Z,21.70
2023-04-29T02:17:02.206Z,21.00
2023-04-29T02:18:02.270Z,20.20
2023-04-29T02:19:02.312Z,21.20
2023-04-29T02:20:02.000Z,21.00
2023-04-29T02:21:02.251Z,20.40
2023-04-29T02:22:02.145Z,22.10
2023-04-29T02:23:02.206Z,21.00
2023-04-29T02:24:02.111Z,21.80
2023-04-29T02:25:02.191Z,22.10
2023-04-29T02:26:02.134Z,22.40
2023-04-29T02:27:02.142Z,21.60
2023-04-29T02:28:02.149Z,23.10
2023-04-29T02:29:02.173Z,22.80
2023-04-29T02:30:02.197Z,21.50
2023-04-29T02:31:02.134Z,22.70
2023-04-29T02:32:02.156Z,22.70
2023-04-29T02:33:02.087Z,22.90
2023-04-29T02:34:02.084Z,23.70
2023-04-29T02:35:01.886Z,23.30
2023-04-29T02:36:01.998Z,22.80
2023-04-29T02:37:02.103Z,23.60
2023-04-29T02:38:01.961Z,24.00
2023-04-29T02:39:01.961Z,23.00
2023-04-29T02:40:01.970Z,23.00
2023-04-29T02:41:01.976Z,23.90
2023-04-29T02:42:02.100Z,22.40
2023-04-29T02:43:01.943Z,23.20
2023-04-29T02:44:01.965Z,23.10
2023-04-29T02:45:01.981Z,22.20
2023-04-29T02:46:01.953Z,22.40
2023-04-29T02:47:02.027Z,22.30
2023-04-29T02:48:01.934Z,24.50
2023-04-29T02:49:01.925Z,23.70
2023-04-29T02:50:01.746Z,23.50
2023-04-29T02:51:01.760Z,23.60
2023-04-29T02:52:01.819Z,23.50
2023-04-29T02:53:02.010Z,24.10
2023-04-29T02:54:01.688Z,23.90
2023-04-29T02:55:01.699Z,24.20
2023-04-29T02:56:01.678Z,23.30
2023-04-29T02:57:01.848Z,23.20
2023-04-29T02:58:01.859Z,22.60
2023-04-29T02:59:01.796Z,23.20
2023-04-29T03:00:01.854Z,22.50
2023-04-29T03:01:01.840Z,22.40
2023-04-29T03:02:01.818Z,22.70
2023-04-29T03:03:02.098Z,22.80
2023-04-29T03:04:01.971Z,22.40
2023-04-29T03:05:01.583Z,22.20
2023-04-29T03:06:01.757Z,22.00
2023-04-29T03:07:01.696Z,22.50
2023-04-29T03:08:01.802Z,21.90
2023-04-29T03:09:01.816Z,22.70
2023-04-29T03:10:01.667Z,21.90
2023-04-29T03:11:01.714Z,21.40
2023-04-29T03:12:01.646Z,21.90
2023-04-29T03:13:01.762Z,20.90
2023-04-29T03:14:01.697Z,21.90
2023-04-29T03:15:01.702Z,21.10
2023-04-29T03:16:01.630Z,21.60
2023-04-29T03:17:01.676Z,21.20
2023-04-29T03:18:01.817Z,20.80
2023-04-29T03:19:01.650Z,21.00
2023-04-29T03:20:01.446Z,20.60
2023-04-29T03:21:01.575Z,19.70
2023-04-29T03:22:01.578Z,21.30
2023-04-29T03:23:01.594Z,21.20
2023-04-29T03:24:01.553Z,21.00
2023-04-29T03:25:01.620Z,21.50
2023-04-29T03:26:01.473Z,21.20
2023-04-29T03:27:01.552Z,20.40
2023-04-29T03:28:01.541Z,20.60
2023-04-29T03:29:01.432Z,20.20
2023-04-29T03:30:01.563Z,19.20
2023-04-29T03:31:01.507Z,21.20
2023-04-29T03:32:01.443Z,20.70
2023-04-29T03:33:01.459Z,21.10
2023-04-29T03:34:01.456Z,21.00
2023-04-29T03:35:01.446Z,20.00
2023-04-29T03:36:01.445Z,20.90
2023-04-29T03:37:01.500Z,20.40
2023-04-29T03:38:01.379Z,20.90
2023-04-29T03:39:01.342Z,21.20
2023-04-29T03:40:01.382Z,20.80
2023-04-29T03:41:01.466Z,19.80
2023-04-29T03:42:01.395Z,22.00
2023-04-29T03:43:01.371Z,21.90
2023-04-29T03:44:01.326Z,22.30
2023-04-29T03:45:01.313Z,21.30
2023-04-29T03:46:01.458Z,21.70
2023-04-29T03:47:01.400Z,21.60
2023-04-29T03:48:01.449Z,21.60
2023-04-29T03:49:01.205Z,21.50
2023-04-29T03:50:01.193Z,23.40
2023-04-29T03:51:01.157Z,22.70
2023-04-29T03:52:01.245Z,21.50
2023-04-29T03:53:01.096Z,21.50
2023-04-29T03:54:01.172Z,21.30
2023-04-29T03:55:01.172Z,21.90
2023-04-29T03:56:01.153Z,21.20
2023-04-29T03:57:01.200Z,21.30
2023-04-29T03:58:01.290Z,21.50
2023-04-29T03:59:01.128Z,21.20
2023-04-29T04:00:01.092Z,21.00
2023-04-29T04:01:01.159Z,20.90
2023-04-29T04:02:01.194Z,20.90
2023-04-29T04:03:04.430Z,20.60
2023-04-29T04:04:01.442Z,20.10
2023-04-29T04:05:01.168Z,20.00
2023-04-29T04:06:01.004Z,20.70
2023-04-29T04:07:01.127Z,20.60
2023-04-29T04:08:01.207Z,19.40
2023-04-29T04:09:01.128Z,19.50
2023-04-29T04:10:01.013Z,19.40
2023-04-29T04:11:00.913Z,18.30
2023-04-29T04:12:01.018Z,19.60
2023-04-29T04:13:01.008Z,18.70
2023-04-29T04:14:01.116Z,18.60
2023-04-29T04:15:00.847Z,19.20
2023-04-29T04:16:01.107Z,18.70
2023-04-29T04:17:01.007Z,18.90
2023-04-29T04:18:00.950Z,18.60
2023-04-29T04:19:01.037Z,18.30
2023-04-29T04:20:00.982Z,18.10
2023-04-29T04:21:00.910Z,18.70
2023-04-29T04:22:00.922Z,18.50
2023-04-29T04:23:00.916Z,19.10
2023-04-29T04:24:00.908Z,18.60
2023-04-29T04:25:00.952Z,17.10
2023-04-29T04:26:00.953Z,18.40
2023-04-29T04:27:00.885Z,17.90
2023-04-29T04:28:00.818Z,17.80
2023-04-29T04:29:00.839Z,17.90
2023-04-29T04:30:00.921Z,17.80
2023-04-29T04:31:00.863Z,17.20
2023-04-29T04:32:00.847Z,16.90
2023-04-29T04:33:00.994Z,17.00
2023-04-29T04:34:00.792Z,16.50
2023-04-29T04:35:00.709Z,17.50
2023-04-29T04:36:00.727Z,17.00
2023-04-29T04:37:00.869Z,16.80
2023-04-29T04:38:00.787Z,16.40
2023-04-29T04:39:00.737Z,15.60
2023-04-29T04:40:00.788Z,15.70
2023-04-29T04:41:00.720Z,16.50
2023-04-29T04:42:00.713Z,16.00
2023-04-29T04:43:00.812Z,15.50
2023-04-29T04:44:00.702Z,16.40
2023-04-29T04:45:00.717Z,16.10
2023-04-29T04:46:00.662Z,16.10
2023-04-29T04:47:00.659Z,16.80
2023-04-29T04:48:00.719Z,17.40
2023-04-29T04:49:00.691Z,17.60
2023-04-29T04:50:00.561Z,18.20
2023-04-29T04:51:00.669Z,18.80
2023-04-29T04:52:00.689Z,19.00
2023-04-29T04:53:00.453Z,19.70
2023-04-29T04:54:00.752Z,20.50
2023-04-29T04:55:00.563Z,20.40
2023-04-29T04:56:00.576Z,19.90
2023-04-29T04:57:00.537Z,21.10
2023-04-29T04:58:00.580Z,20.40
2023-04-29T04:59:00.513Z,21.00
2023-04-29T05:00:00.626Z,21.30
2023-04-29T05:01:00.602Z,21.20
2023-04-29T05:02:00.668Z,21.00
2023-04-29T05:03:00.716Z,21.40
2023-04-29T05:04:00.651Z,20.70
2023-04-29T05:05:00.543Z,21.30
2023-04-29T05:06:00.518Z,22.00
2023-04-29T05:07:00.554Z,21.80
2023-04-29T05:08:00.489Z,21.80
2023-04-29T05:09:00.452Z,22.10
2023-04-29T05:10:00.406Z,22.00
2023-04-29T05:11:00.428Z,21.80
2023-04-29T05:12:00.528Z,21.60
2023-04-29T05:13:00.363Z,22.60
2023-04-29T05:14:00.372Z,22.70
2023-04-29T05:15:00.386Z,22.50
2023-04-29T05:16:00.389Z,21.80
2023-04-29T05:17:00.519Z,23.20
2023-04-29T05:18:00.500Z,22.80
2023-04-29T05:19:00.366Z,23.20
2023-04-29T05:20:00.302Z,23.70
2023-04-29T05:21:00.337Z,22.20
2023-04-29T05:22:00.185Z,22.40
2023-04-29T05:23:00.358Z,21.50
2023-04-29T05:24:00.299Z,23.20
2023-04-29T05:25:00.170Z,23.40
2023-04-29T05:27:25.439Z,23.10
2023-04-29T05:27:30.903Z,22.40
2023-04-29T05:28:30.890Z,22.70
2023-04-29T05:29:30.901Z,23.10
2023-04-29T05:30:30.858Z,22.70
2023-04-29T05:31:31.005Z,23.70
2023-04-29T05:32:30.895Z,22.70
2023-04-29T05:33:30.997Z,22.60
2023-04-29T05:34:30.871Z,21.70
2023-04-29T05:35:30.987Z,22.40
2023-04-29T05:36:30.847Z,23.10
2023-04-29T05:37:31.019Z,22.20
2023-04-29T05:38:30.970Z,22.30
2023-04-29T05:39:30.902Z,21.90
2023-04-29T05:40:30.826Z,22.50
2023-04-29T05:41:30.868Z,23.00
2023-04-29T05:42:30.874Z,23.70
2023-04-29T05:43:31.247Z,22.50
2023-04-29T05:44:30.841Z,22.30
2023-04-29T05:45:30.770Z,21.70
2023-04-29T05:46:30.890Z,22.50
2023-04-29T05:47:30.809Z,21.50
2023-04-29T05:48:30.810Z,22.00
2023-04-29T05:49:30.893Z,22.00
2023-04-29T05:50:30.843Z,22.20
2023-04-29T05:51:30.814Z,22.30
2023-04-29T05:52:30.658Z,22.40
2023-04-29T05:53:30.710Z,22.60
2023-04-29T05:54:30.647Z,22.40
2023-04-29T05:55:30.712Z,22.30
2023-04-29T05:56:30.701Z,23.10
2023-04-29T05:57:30.830Z,22.30
2023-04-29T05:58:30.719Z,22.00
2023-04-29T05:59:30.550Z,23.10
2023-04-29T06:00:30.679Z,21.70
2023-04-29T06:01:30.620Z,21.70
2023-04-29T06:02:30.636Z,21.80
2023-04-29T06:03:30.901Z,22.80
2023-04-29T06:04:30.811Z,22.90
2023-04-29T06:05:30.985Z,23.40
2023-04-29T06:06:30.766Z,22.80
2023-04-29T06:07:30.726Z,22.70
2023-04-29T06:08:30.705Z,22.40
2023-04-29T06:09:30.437Z,21.50
2023-04-29T06:10:30.505Z,22.40
2023-04-29T06:11:30.437Z,20.90
2023-04-29T06:12:30.525Z,22.90
2023-04-29T06:13:30.540Z,22.80
2023-04-29T06:14:30.551Z,22.70
2023-04-29T06:15:30.415Z,22.30
2023-04-29T06:16:30.608Z,22.80
2023-04-29T06:17:30.569Z,22.50
2023-04-29T06:18:30.395Z,22.10
2023-04-29T06:19:30.518Z,22.70
2023-04-29T06:20:30.461Z,22.60
2023-04-29T06:21:30.471Z,22.50
2023-04-29T06:22:30.324Z,23.60
2023-04-29T06:23:30.452Z,22.40
2023-04-29T06:24:30.554Z,22.10
2023-04-29T06:25:30.388Z,22.50
2023-04-29T06:26:30.403Z,21.30
2023-04-29T06:27:30.391Z,21.90
2023-04-29T06:28:30.374Z,21.50
2023-04-29T06:29:30.471Z,23.20
2023-04-29T06:30:30.412Z,22.00
2023-04-29T06:31:30.407Z,22.30
2023-04-29T06:32:30.405Z,22.90
2023-04-29T06:33:30.455Z,23.10
2023-04-29T06:34:30.293Z,22.10
2023-04-29T06:35:30.299Z,22.80
2023-04-29T06:36:30.320Z,22.30
2023-04-29T06:37:30.455Z,21.80
2023-04-29T06:38:30.355Z,22.10
2023-04-29T06:39:30.298Z,21.90
2023-04-29T06:40:30.271Z,22.00
2023-04-29T06:41:30.265Z,22.50
2023-04-29T06:42:30.275Z,22.40
2023-04-29T06:43:30.116Z,22.40
2023-04-29T06:44:30.185Z,22.40
2023-04-29T06:45:30.131Z,22.40
2023-04-29T06:46:30.092Z,22.70
2023-04-29T06:47:30.115Z,22.00
2023-04-29T06:48:30.029Z,23.00
2023-04-29T06:49:30.088Z,23.10
2023-04-29T06:50:30.262Z,23.00
2023-04-29T06:51:30.160Z,23.60
2023-04-29T06:52:29.975Z,23.60
2023-04-29T06:53:30.070Z,23.70
2023-04-29T06:54:30.019Z,23.70
2023-04-29T06:55:30.157Z,22.60
2023-04-29T06:56:30.139Z,23.40
2023-04-29T06:57:29.973Z,24.50
2023-04-29T06:58:29.945Z,23.80
2023-04-29T06:59:30.076Z,23.90
2023-04-29T07:00:30.119Z,22.80
2023-04-29T07:01:29.928Z,23.10
2023-04-29T07:02:30.290Z,23.40
2023-04-29T07:03:30.241Z,23.60
2023-04-29T07:04:30.170Z,23.60
2023-04-29T07:05:30.067Z,24.20
2023-04-29T07:06:30.237Z,23.50
2023-04-29T07:07:30.040Z,23.70
2023-04-29T07:08:30.034Z,24.00
2023-04-29T07:09:30.049Z,24.20
2023-04-29T07:10:29.934Z,24.60
2023-04-29T07:11:30.068Z,24.70
2023-04-29T07:12:29.953Z,24.10
2023-04-29T07:13:30.053Z,24.80
2023-04-29T07:14:29.930Z,24.70
2023-04-29T07:15:29.946Z,24.70
2023-04-29T07:16:29.746Z,25.70
2023-04-29T07:17:30.075Z,25.30
2023-04-29T07:18:29.906Z,24.60
2023-04-29T07:19:30.005Z,26.70
2023-04-29T07:20:29.715Z,26.20
2023-04-29T07:21:29.771Z,26.40
2023-04-29T07:22:30.063Z,25.90
2023-04-29T07:23:29.927Z,26.20
2023-04-29T07:24:29.662Z,26.30
2023-04-29T07:25:29.759Z,26.20
2023-04-29T07:26:29.699Z,26.50
2023-04-29T07:27:29.681Z,26.50
2023-04-29T07:28:29.785Z,26.70
2023-04-29T07:29:29.824Z,26.10
2023-04-29T07:30:29.614Z,26.50
2023-04-29T07:31:29.871Z,27.30
2023-04-29T07:32:29.697Z,26.70
2023-04-29T07:33:29.568Z,27.80
2023-04-29T07:34:29.605Z,27.50
2023-04-29T07:35:29.587Z,27.10
2023-04-29T07:36:29.756Z,27.10
2023-04-29T07:37:29.561Z,27.50
2023-04-29T07:38:29.587Z,27.00
2023-04-29T07:39:29.540Z,26.50
2023-04-29T07:40:29.517Z,27.00
2023-04-29T07:41:29.490Z,26.20
2023-04-29T07:42:29.485Z,27.80
2023-04-29T07:43:29.541Z,28.00
2023-04-29T07:44:29.491Z,27.70
2023-04-29T07:45:29.477Z,27.50
2023-04-29T07:46:29.440Z,27.50
2023-04-29T07:47:29.465Z,27.70
2023-04-29T07:48:29.500Z,27.60
2023-04-29T07:49:29.406Z,26.90
2023-04-29T07:50:29.443Z,27.20
2023-04-29T07:51:29.380Z,26.50
2023-04-29T07:52:29.374Z,28.00
2023-04-29T07:53:29.531Z,27.10
2023-04-29T07:54:29.354Z,27.30
2023-04-29T07:55:29.512Z,27.70
2023-04-29T07:56:29.410Z,27.10
2023-04-29T07:57:29.340Z,27.90
2023-04-29T07:58:29.356Z,28.40
2023-04-29T07:59:29.416Z,27.80
2023-04-29T08:00:29.370Z,27.20
2023-04-29T08:01:29.344Z,27.90
2023-04-29T08:02:29.432Z,28.40
2023-04-29T08:03:29.640Z,28.70
2023-04-29T08:04:29.711Z,28.00
2023-04-29T08:05:29.589Z,27.40
2023-04-29T08:06:29.265Z,28.50
2023-04-29T08:07:29.205Z,27.50
2023-04-29T08:08:29.440Z,28.30
2023-04-29T08:09:29.540Z,28.30
2023-04-29T08:10:29.443Z,27.10
2023-04-29T08:11:29.501Z,28.10
2023-04-29T08:12:29.228Z,26.40
2023-04-29T08:13:29.303Z,26.60
2023-04-29T08:14:29.419Z,26.20
2023-04-29T08:15:29.212Z,27.10
2023-04-29T08:16:29.239Z,26.60
2023-04-29T08:17:29.339Z,26.50
2023-04-29T08:18:29.321Z,26.50
2023-04-29T08:19:29.273Z,26.50
2023-04-29T08:20:29.314Z,25.70
2023-04-29T08:21:29.127Z,27.50
2023-04-29T08:22:29.140Z,25.60
2023-04-29T08:23:29.161Z,25.90
2023-04-29T08:24:29.065Z,24.40
2023-04-29T08:25:29.281Z,24.00
2023-04-29T08:26:29.168Z,24.30
2023-04-29T08:27:29.169Z,24.70
2023-04-29T08:28:29.279Z,24.40
2023-04-29T08:29:29.083Z,24.60
2023-04-29T08:30:29.091Z,24.10
2023-04-29T08:31:29.460Z,24.00
2023-04-29T08:32:29.196Z,23.40
2023-04-29T08:33:28.952Z,25.30
2023-04-29T08:34:29.260Z,24.50
2023-04-29T08:35:29.174Z,24.40
2023-04-29T08:36:29.172Z,25.00
2023-04-29T08:37:29.140Z,25.90
2023-04-29T08:38:29.114Z,24.80
2023-04-29T08:39:29.090Z,24.90
2023-04-29T08:40:29.188Z,25.00
2023-04-29T08:41:29.053Z,25.10
2023-04-29T08:42:29.027Z,24.30
2023-04-29T08:43:29.019Z,23.50
2023-04-29T08:44:29.039Z,23.60
2023-04-29T08:45:28.968Z,23.10
2023-04-29T08:46:28.969Z,23.50
2023-04-29T08:47:28.977Z,22.90
2023-04-29T08:48:29.055Z,23.10
2023-04-29T08:49:28.960Z,22.90
2023-04-29T08:50:28.768Z,23.70
2023-04-29T08:51:28.919Z,22.70
2023-04-29T08:52:28.887Z,22.40
2023-04-29T08:53:28.935Z,24.80
2023-04-29T08:54:28.906Z,22.60
2023-04-29T08:55:28.885Z,22.50
2023-04-29T08:56:28.864Z,23.50
2023-04-29T08:57:28.839Z,23.30
2023-04-29T08:58:28.913Z,24.20
2023-04-29T08:59:28.655Z,23.80
2023-04-29T09:00:28.835Z,23.30
2023-04-29T09:01:28.878Z,23.10
2023-04-29T09:02:28.925Z,23.00
2023-04-29T09:03:28.869Z,22.80
2023-04-29T09:04:28.892Z,23.60
2023-04-29T09:05:28.762Z,23.00
2023-04-29T09:06:28.732Z,22.80
2023-04-29T09:07:28.701Z,22.90
2023-04-29T09:08:28.677Z,23.10
2023-04-29T09:09:28.646Z,22.00
2023-04-29T09:10:28.708Z,22.10
2023-04-29T09:11:28.616Z,22.10
2023-04-29T09:12:28.675Z,22.80
2023-04-29T09:13:28.658Z,22.00
2023-04-29T09:14:28.724Z,22.60
2023-04-29T09:15:28.551Z,22.30
2023-04-29T09:16:28.638Z,23.20
2023-04-29T09:17:28.803Z,22.40
2023-04-29T09:18:28.655Z,21.20
2023-04-29T09:19:28.578Z,21.70
2023-04-29T09:20:28.760Z,21.10
2023-04-29T09:21:28.609Z,21.90
2023-04-29T09:22:28.585Z,21.50
2023-04-29T09:23:28.577Z,21.30
2023-04-29T09:24:28.426Z,20.20
2023-04-29T09:25:28.406Z,21.50
2023-04-29T09:26:28.416Z,20.90
2023-04-29T09:27:28.356Z,21.80
2023-04-29T09:28:28.345Z,21.30
2023-04-29T09:29:28.424Z,20.90
2023-04-29T09:30:28.410Z,20.30
2023-04-29T09:31:28.553Z,20.10
2023-04-29T09:32:28.358Z,21.20
2023-04-29T09:33:28.316Z,20.40
2023-04-29T09:34:28.289Z,19.20
2023-04-29T09:35:28.297Z,19.90
2023-04-29T09:36:28.378Z,20.50
2023-04-29T09:37:28.392Z,20.90
2023-04-29T09:38:28.379Z,19.80
2023-04-29T09:39:28.257Z,20.50
2023-04-29T09:40:28.258Z,20.30
2023-04-29T09:41:28.209Z,21.60
2023-04-29T09:42:28.703Z,21.10
2023-04-29T09:43:28.196Z,20.70
2023-04-29T09:44:29.189Z,20.60
2023-04-29T09:45:28.452Z,19.60
2023-04-29T09:46:28.244Z,20.30
2023-04-29T09:47:28.469Z,20.70
2023-04-29T09:48:28.187Z,19.60
2023-04-29T09:49:28.146Z,20.50
2023-04-29T09:50:28.126Z,20.40
2023-04-29T09:51:28.285Z,20.00
2023-04-29T09:52:28.487Z,19.70
2023-04-29T09:53:28.459Z,20.90
2023-04-29T09:54:28.293Z,20.50
2023-04-29T09:55:28.246Z,21.00
2023-04-29T09:56:28.332Z,20.30
2023-04-29T09:57:28.064Z,20.70
2023-04-29T09:58:28.315Z,20.70
2023-04-29T09:59:28.010Z,20.30
2023-04-29T10:00:28.247Z,21.00
2023-04-29T10:01:28.286Z,20.30
2023-04-29T10:02:28.301Z,20.70
2023-04-29T10:03:28.228Z,20.80
2023-04-29T10:04:28.216Z,21.00
2023-04-29T10:05:28.272Z,21.40
2023-04-29T10:06:28.165Z,20.40
2023-04-29T10:07:28.216Z,20.60
2023-04-29T10:08:28.220Z,19.50
2023-04-29T10:09:28.193Z,18.80
2023-04-29T10:10:30.048Z,17.10
2023-04-29T10:11:28.178Z,16.70
2023-04-29T10:12:28.158Z,16.30
2023-04-29T10:13:27.881Z,16.30
2023-04-29T10:14:27.878Z,16.40
2023-04-29T10:15:27.978Z,16.80
2023-04-29T10:16:28.204Z,16.30
2023-04-29T10:17:28.224Z,15.90
2023-04-29T10:18:28.035Z,16.40
2023-04-29T10:19:28.021Z,16.80
2023-04-29T10:20:28.143Z,16.60
2023-04-29T10:21:28.029Z,15.70
2023-04-29T10:22:28.042Z,15.00
2023-04-29T10:23:28.033Z,15.70
2023-04-29T10:24:28.026Z,15.50
2023-04-29T10:25:28.036Z,15.50
2023-04-29T10:26:28.025Z,15.30
2023-04-29T10:27:28.038Z,15.30
2023-04-29T10:28:28.037Z,14.70
2023-04-29T10:29:27.888Z,14.80
2023-04-29T10:30:27.800Z,14.30
2023-04-29T10:31:28.074Z,14.40
2023-04-29T10:32:30.565Z,14.10
2023-04-29T10:33:28.006Z,13.70
2023-04-29T10:34:27.966Z,13.20
2023-04-29T10:35:27.952Z,13.10
2023-04-29T10:36:27.932Z,13.70
2023-04-29T10:37:27.906Z,12.80
2023-04-29T10:38:28.120Z,12.70
2023-04-29T10:39:27.859Z,12.70
2023-04-29T10:40:27.889Z,12.50
2023-04-29T10:41:27.824Z,12.20
2023-04-29T10:42:27.898Z,11.50
2023-04-29T10:43:27.578Z,11.10
2023-04-29T10:44:27.715Z,11.00
2023-04-29T10:45:27.826Z,11.90
2023-04-29T10:46:27.883Z,11.20
2023-04-29T10:47:27.925Z,11.50
2023-04-29T10:48:27.519Z,11.60
2023-04-29T10:49:27.726Z,11.20
2023-04-29T10:50:27.524Z,11.00
2023-04-29T10:51:27.801Z,11.20
2023-04-29T10:52:27.774Z,11.20
2023-04-29T10:53:27.750Z,10.90
2023-04-29T10:54:27.495Z,11.40
2023-04-29T10:55:27.632Z,11.20
2023-04-29T10:56:27.452Z,10.80
2023-04-29T10:57:27.443Z,11.30
2023-04-29T10:58:27.649Z,11.20
2023-04-29T10:59:27.411Z,10.80
2023-04-29T11:00:27.381Z,10.20
2023-04-29T11:01:27.394Z,10.60
2023-04-29T11:02:27.905Z,10.60
2023-04-29T11:03:27.651Z,10.60
2023-04-29T11:04:27.612Z,10.10
2023-04-29T11:05:27.850Z,9.60
2023-04-29T11:06:27.351Z,10.40
2023-04-29T11:07:27.368Z,10.40
2023-04-29T11:08:27.392Z,10.70
2023-04-29T11:09:27.326Z,10.40
2023-04-29T11:10:27.634Z,10.70
2023-04-29T11:11:28.379Z,10.90
2023-04-29T11:12:27.306Z,10.70
2023-04-29T11:13:27.297Z,10.80
2023-04-29T11:14:27.315Z,11.40
2023-04-29T11:15:27.233Z,12.10
2023-04-29T11:16:27.448Z,12.40
2023-04-29T11:17:28.383Z,12.00
2023-04-29T11:18:27.260Z,12.00
2023-04-29T11:19:27.436Z,11.70
2023-04-29T11:20:27.348Z,12.00
2023-04-29T11:21:27.197Z,12.20
2023-04-29T11:22:27.293Z,11.70
2023-04-29T11:23:28.467Z,12.10
2023-04-29T11:24:27.329Z,12.30
2023-04-29T11:25:27.116Z,12.70
2023-04-29T11:26:27.162Z,12.50
2023-04-29T11:27:27.133Z,13.20
2023-04-29T11:28:27.226Z,12.60
2023-04-29T11:29:27.133Z,13.00
2023-04-29T11:30:27.088Z,13.00
2023-04-29T11:31:28.786Z,12.20
2023-04-29T11:32:27.364Z,13.30
2023-04-29T11:33:27.390Z,13.70
2023-04-29T11:34:27.050Z,13.40
2023-04-29T11:35:27.058Z,13.60
2023-04-29T11:36:27.166Z,13.80
2023-04-29T11:37:27.043Z,14.30
2023-04-29T11:38:27.043Z,13.70
2023-04-29T11:39:27.009Z,14.20
2023-04-29T11:40:27.029Z,15.20
2023-04-29T11:41:26.972Z,14.90
2023-04-29T11:42:26.967Z,15.00
2023-04-29T11:43:26.927Z,14.10
2023-04-29T11:44:26.997Z,14.00
2023-04-29T11:45:27.037Z,15.00
2023-04-29T11:46:26.992Z,14.00
2023-04-29T11:47:26.902Z,14.90
2023-04-29T11:48:26.882Z,14.40
2023-04-29T11:49:27.086Z,14.70
2023-04-29T11:50:26.917Z,14.50
2023-04-29T11:51:26.943Z,14.60
2023-04-29T11:52:27.020Z,14.10
2023-04-29T11:53:27.045Z,14.40
2023-04-29T11:54:26.835Z,14.40
2023-04-29T11:55:26.827Z,13.70
2023-04-29T11:56:27.124Z,14.40
2023-04-29T11:57:26.961Z,13.80
2023-04-29T11:58:26.782Z,13.70
2023-04-29T11:59:26.838Z,14.30
2023-04-29T12:00:26.949Z,13.90
2023-04-29T12:01:26.862Z,14.10
2023-04-29T12:02:26.975Z,13.40
2023-04-29T12:03:26.996Z,13.30
2023-04-29T12:04:26.987Z,12.90
2023-04-29T12:05:26.896Z,12.40
2023-04-29T12:06:26.874Z,12.60
2023-04-29T12:07:26.764Z,13.40
2023-04-29T12:08:26.943Z,13.20
2023-04-29T12:09:26.703Z,13.20
2023-04-29T12:10:26.809Z,12.10
2023-04-29T12:11:26.747Z,12.30
2023-04-29T12:12:26.708Z,11.80
2023-04-29T12:13:26.789Z,12.10
2023-04-29T12:14:26.697Z,11.80
2023-04-29T12:15:26.744Z,12.30
2023-04-29T12:16:26.843Z,11.80
2023-04-29T12:17:26.716Z,12.70
2023-04-29T12:18:26.657Z,11.80
2023-04-29T12:19:26.570Z,12.80
2023-04-29T12:20:26.651Z,11.30
2023-04-29T12:21:26.589Z,12.20
2023-04-29T12:22:26.545Z,12.30
2023-04-29T12:23:26.733Z,12.40
2023-04-29T12:24:26.581Z,12.40
2023-04-29T12:25:26.531Z,12.90
2023-04-29T12:26:26.512Z,12.60
2023-04-29T12:27:26.479Z,12.10
2023-04-29T12:28:26.517Z,11.70
2023-04-29T12:29:26.478Z,11.70
2023-04-29T12:30:26.484Z,11.90
2023-04-29T12:31:26.518Z,12.10
2023-04-29T12:32:26.699Z,11.90
2023-04-29T12:33:26.405Z,11.60
2023-04-29T12:34:26.444Z,11.90
2023-04-29T12:35:26.409Z,11.70
2023-04-29T12:36:26.500Z,11.20
2023-04-29T12:37:26.501Z,11.00
2023-04-29T12:38:26.586Z,11.20
2023-04-29T12:39:26.345Z,11.10
2023-04-29T12:40:27.863Z,10.70
2023-04-29T12:41:26.606Z,10.30
2023-04-29T12:42:26.456Z,10.30
2023-04-29T12:43:26.457Z,10.40
2023-04-29T12:44:26.595Z,10.30
2023-04-29T12:45:26.424Z,11.10
2023-04-29T12:46:26.524Z,10.70
2023-04-29T12:47:26.433Z,10.70
2023-04-29T12:48:30.034Z,10.60
2023-04-29T12:49:26.339Z,10.50
2023-04-29T12:50:26.354Z,10.50
2023-04-29T12:51:26.430Z,10.70
2023-04-29T12:52:26.426Z,11.00